Terminal Aerodrome Forecast
Issued by NWS Austin/San Antonio, TX

Home | Current Version | Previous Version | Text Only | Print | Product List | Glossary On
Versions: 1 2 3 4 5 6 7 8 9 10 11 12 13 14 15
000
FTUS44 KEWX 191624 AAB
TAFDRT
TAF AMD
KDRT 191624Z 1916/2012 12009KT P6SM SCT015
     FM191800 13014KT P6SM SCT040
     FM200800 12009KT P6SM OVC015=

USA.gov is the U.S. government's official web portal to all federal, state and local government web resources and services.